createdAt,value
2019-04-11T00:20:09.987Z,9.33
2019-04-11T00:22:38.108Z,9.23
2019-04-11T01:24:15.565Z,8.67
2019-04-11T01:26:43.844Z,8.63
2019-04-11T01:29:12.001Z,8.33
2019-04-11T01:31:42.760Z,9.27
2019-04-11T01:34:11.169Z,8.40
2019-04-11T01:36:39.433Z,9.13
2019-04-11T01:39:27.878Z,8.70
2019-04-11T01:49:26.623Z,8.80
2019-04-11T01:51:55.986Z,8.70
2019-04-11T01:54:24.224Z,8.83
2019-04-11T01:56:52.333Z,8.93
2019-04-11T01:59:21.537Z,8.60
2019-04-11T02:02:07.762Z,9.60
2019-04-11T02:04:40.457Z,8.23
2019-04-11T02:07:08.715Z,8.37
2019-04-11T02:09:37.942Z,8.23
2019-04-11T02:12:06.267Z,9.63
2019-04-11T02:14:35.409Z,8.30
2019-04-11T02:39:38.585Z,7.93
2019-04-11T02:42:08.800Z,8.30
2019-04-11T02:44:57.822Z,8.03
2019-04-11T02:47:13.076Z,8.13
2019-04-11T02:49:36.704Z,8.57
2019-04-11T02:52:04.860Z,8.30
2019-04-11T02:54:33.672Z,7.87
2019-04-11T02:57:02.762Z,8.80
2019-04-11T02:59:31.384Z,8.10
2019-04-11T03:02:00.453Z,8.37
2019-04-11T03:04:30.915Z,8.30
2019-04-11T03:07:00.095Z,9.23
2019-04-11T03:09:29.184Z,8.70
2019-04-11T03:11:58.946Z,8.33
2019-04-11T03:14:27.747Z,8.50
2019-04-11T03:17:08.377Z,8.53
2019-04-11T03:19:42.667Z,9.27
2019-04-11T03:21:58.999Z,9.00
2019-04-11T03:24:28.916Z,8.90
2019-04-11T03:27:00.336Z,8.97
2019-04-11T03:29:28.909Z,9.20
2019-04-11T03:33:14.926Z,8.40
2019-04-11T03:37:23.391Z,7.83
2019-04-11T03:39:48.879Z,8.70
2019-04-11T03:42:15.745Z,9.37
2019-04-11T03:44:33.963Z,8.87
2019-04-11T03:47:11.258Z,8.70
2019-04-11T03:49:35.652Z,8.93
2019-04-11T03:51:56.979Z,8.90
2019-04-11T03:54:25.307Z,8.77
2019-04-11T03:56:53.879Z,8.47
2019-04-11T03:59:23.685Z,9.23
2019-04-11T04:01:54.017Z,8.50
2019-04-11T04:04:23.731Z,8.77
2019-04-11T04:06:52.855Z,9.07
2019-04-11T04:09:21.408Z,8.77
2019-04-11T04:11:51.332Z,8.90
2019-04-11T04:14:28.500Z,9.73
2019-04-11T04:17:10.077Z,9.03
2019-04-11T04:19:43.341Z,9.20
2019-04-11T04:22:17.865Z,9.30
2019-04-11T04:24:47.533Z,8.93
2019-04-11T04:27:17.241Z,9.00
2019-04-11T04:29:49.636Z,10.13
2019-04-11T04:32:16.344Z,9.40
2019-04-11T04:34:46.376Z,9.70
2019-04-11T04:37:16.195Z,8.93
2019-04-11T04:39:45.668Z,9.67
2019-04-11T04:42:23.866Z,9.00
2019-04-11T04:44:45.153Z,9.50
2019-04-11T04:47:22.156Z,10.20
2019-04-11T04:49:43.810Z,10.47
2019-04-11T04:52:14.303Z,9.67
2019-04-11T04:54:41.743Z,9.47
2019-04-11T04:57:12.976Z,10.13
2019-04-11T04:59:40.905Z,9.50
2019-04-11T05:02:10.949Z,9.80
2019-04-11T05:04:40.323Z,10.27
2019-04-11T05:07:09.665Z,10.07
2019-04-11T05:09:38.370Z,10.00
2019-04-11T05:12:06.572Z,9.57
2019-04-11T05:14:35.115Z,9.67
2019-04-11T05:17:03.327Z,9.77
2019-04-11T05:19:32.005Z,10.57
2019-04-11T05:22:00.195Z,10.27
2019-04-11T05:24:28.352Z,10.03
2019-04-11T05:26:57.588Z,10.37
2019-04-11T05:29:27.091Z,10.40
2019-04-11T05:31:55.344Z,11.17
2019-04-11T05:34:23.835Z,12.33
2019-04-11T05:36:53.257Z,13.63
2019-04-11T05:39:21.419Z,12.37
2019-04-11T05:41:49.944Z,9.73
2019-04-11T05:44:19.205Z,10.27
2019-04-11T05:46:54.924Z,9.40
2019-04-11T05:49:37.252Z,9.10
2019-04-11T05:52:06.055Z,9.93
2019-04-11T05:54:38.678Z,10.50
2019-04-11T05:57:06.949Z,9.67
2019-04-11T05:59:36.119Z,10.13
2019-04-11T06:02:21.399Z,10.07
2019-04-11T06:04:54.741Z,10.07
2019-04-11T06:07:23.173Z,11.47
2019-04-11T06:09:55.320Z,9.80
2019-04-11T06:12:43.517Z,12.10
2019-04-11T06:15:16.058Z,11.23
2019-04-11T06:17:46.198Z,11.30
2019-04-11T06:20:25.492Z,11.70
2019-04-11T06:23:10.455Z,12.33
2019-04-11T06:25:55.550Z,12.00
2019-04-11T06:28:27.208Z,12.97
2019-04-11T06:31:13.776Z,10.67
2019-04-11T06:33:43.507Z,11.10
2019-04-11T06:36:30.126Z,10.10
2019-04-11T06:39:09.270Z,11.13
2019-04-11T06:41:39.069Z,11.10
2019-04-11T06:44:08.870Z,13.57
2019-04-11T06:46:57.729Z,9.90
2019-04-11T06:49:38.443Z,10.43
2019-04-11T06:52:08.537Z,9.73
2019-04-11T06:54:41.401Z,9.30
2019-04-11T06:57:11.801Z,9.40
2019-04-11T06:59:44.943Z,10.20
2019-04-11T07:02:19.197Z,9.93
2019-04-11T07:04:46.298Z,10.87
2019-04-11T07:07:14.457Z,9.67
2019-04-11T07:09:44.992Z,10.10
2019-04-11T07:12:15.596Z,10.80
2019-04-11T07:14:51.460Z,10.33
2019-04-11T07:17:37.532Z,10.60
2019-04-11T07:20:25.049Z,9.37
2019-04-11T07:23:11.409Z,10.40
2019-04-11T07:25:41.159Z,9.70
2019-04-11T07:28:27.345Z,9.57
2019-04-11T07:31:03.171Z,10.43
2019-04-11T07:33:33.345Z,9.63
2019-04-11T07:36:20.875Z,10.27
2019-04-11T07:38:52.304Z,9.73
2019-04-11T07:41:27.975Z,9.27
2019-04-11T07:43:58.534Z,10.53
2019-04-11T07:46:40.737Z,9.70
2019-04-11T07:49:10.136Z,10.03
2019-04-11T07:51:40.745Z,10.00
2019-04-11T07:54:09.351Z,10.27
2019-04-11T07:56:39.163Z,9.73
2019-04-11T07:59:27.214Z,10.03
2019-04-11T08:02:13.172Z,10.67
2019-04-11T08:04:45.563Z,11.17
2019-04-11T08:07:15.469Z,10.07
2019-04-11T08:09:45.215Z,9.93
2019-04-11T08:12:21.332Z,10.93
2019-04-11T08:14:59.879Z,10.70
2019-04-11T08:17:36.660Z,10.37
2019-04-11T08:20:17.237Z,10.80
2019-04-11T08:22:47.550Z,11.20
2019-04-11T08:25:33.783Z,12.13
2019-04-11T08:28:05.927Z,12.07
2019-04-11T08:30:43.947Z,10.73
2019-04-11T08:33:14.078Z,10.67
2019-04-11T09:34:21.828Z,10.93
2019-04-11T09:36:51.595Z,11.93
2019-04-11T09:44:26.347Z,12.07
2019-04-11T09:47:01.897Z,11.63
2019-04-11T09:49:31.638Z,12.13
2019-04-11T09:52:02.418Z,13.23
2019-04-11T10:41:49.102Z,14.50
2019-04-11T10:44:18.920Z,14.83
2019-04-11T10:46:51.801Z,14.37
2019-04-11T10:49:30.689Z,14.40
2019-04-11T11:09:44.227Z,13.80
2019-04-11T14:34:13.612Z,11.67
2019-04-11T16:55:58.651Z,12.03
2019-04-11T20:00:26.464Z,9.17
2019-04-11T20:12:27.715Z,8.87
2019-04-11T20:45:03.465Z,8.77
2019-04-11T20:56:52.207Z,8.33
2019-04-11T21:02:58.420Z,8.17
2019-04-11T21:05:30.538Z,8.10
2019-04-11T21:07:56.467Z,8.40
2019-04-11T21:10:24.579Z,7.53
2019-04-11T21:12:52.690Z,8.43
2019-04-11T21:15:20.856Z,7.97
2019-04-11T21:17:49.035Z,7.83
2019-04-11T21:20:17.152Z,8.03
2019-04-11T21:22:45.240Z,7.90
2019-04-11T21:25:13.321Z,7.53
2019-04-11T21:27:41.441Z,8.23
2019-04-11T21:30:09.690Z,7.93
2019-04-11T21:32:37.804Z,7.73
2019-04-11T21:35:06.260Z,7.77
2019-04-11T21:37:36.618Z,8.10
2019-04-11T21:40:05.761Z,7.97
2019-04-11T21:42:36.206Z,8.00
2019-04-11T21:45:06.239Z,7.73
2019-04-11T21:47:36.873Z,7.80
2019-04-11T21:50:09.083Z,8.17
2019-04-11T21:52:35.383Z,8.17
2019-04-11T21:55:03.775Z,7.80
2019-04-11T21:57:31.870Z,7.80
2019-04-11T22:00:01.511Z,7.90
2019-04-11T22:02:29.804Z,8.70
2019-04-11T22:04:58.919Z,7.70
2019-04-11T22:07:30.817Z,8.60
2019-04-11T22:09:57.583Z,9.20
2019-04-11T22:12:25.687Z,9.23
2019-04-11T22:14:53.784Z,8.57
2019-04-11T22:17:21.893Z,8.57
2019-04-11T22:19:49.986Z,8.77
2019-04-11T22:22:18.079Z,8.33
2019-04-11T22:24:46.159Z,7.67
2019-04-11T22:27:14.259Z,7.97
2019-04-11T22:29:42.347Z,8.43
2019-04-11T22:32:10.442Z,9.10
2019-04-11T22:34:40.191Z,8.77
2019-04-11T22:37:08.286Z,8.60
2019-04-11T22:39:36.375Z,8.80
2019-04-11T22:42:04.495Z,8.30
2019-04-11T22:44:32.607Z,8.83
2019-04-11T22:47:00.714Z,8.37
2019-04-11T22:49:28.798Z,9.17
2019-04-11T22:51:56.886Z,9.30
2019-04-11T22:54:24.995Z,8.53
2019-04-11T22:56:53.751Z,8.53
2019-04-11T22:59:21.873Z,9.20
2019-04-11T23:01:50.857Z,8.47
2019-04-11T23:04:18.976Z,9.00
2019-04-11T23:06:47.795Z,8.47
2019-04-11T23:09:16.697Z,8.43
2019-04-11T23:11:45.800Z,8.80
2019-04-11T23:14:15.905Z,8.73
2019-04-11T23:16:44.196Z,8.90
2019-04-11T23:19:14.371Z,9.20
2019-04-11T23:21:42.765Z,8.87
2019-04-11T23:24:12.110Z,9.13
2019-04-11T23:26:40.415Z,9.30
2019-04-11T23:29:08.519Z,8.60
2019-04-11T23:31:36.624Z,8.30
2019-04-11T23:34:04.722Z,8.70
2019-04-11T23:36:33.058Z,9.47
2019-04-11T23:39:01.173Z,8.80
2019-04-11T23:41:29.263Z,9.10
2019-04-11T23:43:57.364Z,8.60
2019-04-11T23:46:25.451Z,9.27
2019-04-11T23:48:55.542Z,8.50
2019-04-11T23:51:26.310Z,8.80
2019-04-11T23:53:53.194Z,10.13
2019-04-11T23:56:21.287Z,8.83
2019-04-11T23:58:49.400Z,8.67
